createdAt,value
2023-05-02T00:37:32.111Z,998.8
2023-05-02T00:38:33.401Z,998.8
2023-05-02T00:39:34.561Z,998.8
2023-05-02T00:40:38.481Z,998.8
2023-05-02T00:41:39.606Z,998.8
2023-05-02T00:42:43.752Z,998.8
2023-05-02T00:43:44.897Z,998.8
2023-05-02T00:44:46.072Z,998.8
2023-05-02T00:45:50.179Z,998.8
2023-05-02T00:46:51.476Z,998.8
2023-05-02T00:47:52.864Z,998.8
2023-05-02T00:48:54.084Z,998.9
2023-05-02T00:49:55.248Z,998.9
2023-05-02T00:50:56.413Z,998.9
2023-05-02T00:51:57.588Z,999
2023-05-02T00:52:58.801Z,999
2023-05-02T00:53:59.945Z,999
2023-05-02T00:55:01.108Z,999
2023-05-02T00:56:02.272Z,999
2023-05-02T00:57:03.438Z,999
2023-05-02T00:58:04.603Z,998.9
2023-05-02T00:59:05.772Z,998.9
2023-05-02T01:00:06.943Z,998.9
2023-05-02T01:01:08.118Z,998.9
2023-05-02T01:02:09.598Z,998.9
2023-05-02T01:03:11.281Z,998.9
2023-05-02T01:04:12.837Z,998.9
2023-05-02T01:05:14.202Z,998.9
2023-05-02T01:06:15.369Z,998.9
2023-05-02T01:07:16.530Z,998.9
2023-05-02T01:08:17.722Z,998.9
2023-05-02T01:09:18.860Z,998.9
2023-05-02T01:10:20.047Z,998.9
2023-05-02T01:11:21.242Z,999
2023-05-02T01:12:22.418Z,999
2023-05-02T01:13:23.576Z,999
2023-05-02T01:14:24.742Z,999
2023-05-02T01:15:25.904Z,999
2023-05-02T01:16:27.153Z,999
2023-05-02T01:17:28.299Z,999
2023-05-02T01:18:29.539Z,998.9
2023-05-02T01:19:30.705Z,998.9
2023-05-02T01:20:31.875Z,998.9
2023-05-02T01:21:33.035Z,998.9
2023-05-02T01:22:34.202Z,998.9
2023-05-02T01:23:35.403Z,999
2023-05-02T01:24:36.542Z,999
2023-05-02T01:25:37.765Z,999.1
2023-05-02T01:26:38.906Z,999.1
2023-05-02T01:27:40.076Z,999.1
2023-05-02T01:28:41.234Z,999.1
2023-05-02T01:29:42.396Z,999.1
2023-05-02T01:30:43.576Z,999.1
2023-05-02T01:31:44.779Z,999.1
2023-05-02T01:32:46.051Z,999.1
2023-05-02T01:33:47.226Z,999.1
2023-05-02T01:34:48.392Z,999.1
2023-05-02T01:35:49.556Z,999.1
2023-05-02T01:36:50.722Z,999.1
2023-05-02T01:37:51.891Z,999.1
2023-05-02T01:38:53.187Z,999.1
2023-05-02T01:39:54.330Z,999.1
2023-05-02T01:40:55.496Z,999.1
2023-05-02T01:41:56.668Z,999.1
2023-05-02T01:42:57.850Z,999.2
2023-05-02T01:43:59.311Z,999.1
2023-05-02T01:45:00.472Z,999.2
2023-05-02T01:46:01.639Z,999.2
2023-05-02T01:47:02.878Z,999.2
2023-05-02T01:48:04.134Z,999.2
2023-05-02T01:49:05.317Z,999.2
2023-05-02T01:50:06.491Z,999.2
2023-05-02T01:51:07.655Z,999.2
2023-05-02T01:52:08.819Z,999.2
2023-05-02T01:53:09.982Z,999.2
2023-05-02T01:54:11.190Z,999.2
2023-05-02T01:55:12.342Z,999.2
2023-05-02T01:56:13.505Z,999.2
2023-05-02T01:57:14.660Z,999.2
2023-05-02T01:58:15.825Z,999.2
2023-05-02T01:59:17.016Z,999.3
2023-05-02T02:00:18.166Z,999.3
2023-05-02T02:01:19.339Z,999.3
2023-05-02T02:02:20.637Z,999.3
2023-05-02T02:03:21.840Z,999.3
2023-05-02T02:04:23.133Z,999.3
2023-05-02T02:05:24.298Z,999.3
2023-05-02T02:06:25.559Z,999.3
2023-05-02T02:07:26.821Z,999.3
2023-05-02T02:08:27.989Z,999.3
2023-05-02T02:09:29.408Z,999.3
2023-05-02T02:10:30.551Z,999.3
2023-05-02T02:11:31.736Z,999.3
2023-05-02T02:12:32.885Z,999.3
2023-05-02T02:13:34.047Z,999.3
2023-05-02T02:14:35.271Z,999.3
2023-05-02T02:15:36.401Z,999.4
2023-05-02T02:16:37.572Z,999.4
2023-05-02T02:17:38.786Z,999.4
2023-05-02T02:18:39.982Z,999.4
2023-05-02T02:19:41.151Z,999.4
2023-05-02T02:20:42.319Z,999.4
2023-05-02T02:21:43.484Z,999.4
2023-05-02T02:22:44.647Z,999.4
2023-05-02T02:23:45.819Z,999.4
2023-05-02T02:24:47.079Z,999.4
2023-05-02T02:25:48.301Z,999.4
2023-05-02T02:26:51.989Z,999.4
2023-05-02T02:27:53.136Z,999.4
2023-05-02T02:28:54.294Z,999.4
2023-05-02T02:29:55.466Z,999.4
2023-05-02T02:30:56.739Z,999.4
2023-05-02T02:31:57.979Z,999.3
2023-05-02T02:32:59.234Z,999.3
2023-05-02T02:34:00.394Z,999.4
2023-05-02T02:35:01.554Z,999.4
2023-05-02T02:36:02.720Z,999.4
2023-05-02T02:37:03.885Z,999.4
2023-05-02T02:38:05.050Z,999.4
2023-05-02T02:39:06.218Z,999.4
2023-05-02T02:40:07.416Z,999.4
2023-05-02T02:41:08.565Z,999.4
2023-05-02T02:42:09.739Z,999.5
2023-05-02T02:43:10.898Z,999.5
2023-05-02T02:44:14.068Z,999.5
2023-05-02T02:45:15.229Z,999.5
2023-05-02T02:46:16.409Z,999.5
2023-05-02T02:47:17.578Z,999.6
2023-05-02T02:48:18.896Z,999.6
2023-05-02T02:49:20.240Z,999.6
2023-05-02T02:50:21.420Z,999.6
2023-05-02T02:51:22.591Z,999.6
2023-05-02T02:52:23.743Z,999.6
2023-05-02T02:53:24.909Z,999.6
2023-05-02T02:54:27.956Z,999.6
2023-05-02T02:55:29.268Z,999.6
2023-05-02T02:56:33.352Z,999.6
2023-05-02T02:57:34.473Z,999.6
2023-05-02T02:58:35.653Z,999.6
2023-05-02T02:59:36.808Z,999.6
2023-05-02T03:00:41.137Z,999.6
2023-05-02T03:01:42.368Z,999.6
2023-05-02T03:02:43.614Z,999.7
2023-05-02T03:03:44.903Z,999.7
2023-05-02T03:04:46.077Z,999.8
2023-05-02T03:05:47.246Z,999.8
2023-05-02T03:06:48.518Z,999.8
2023-05-02T03:07:50.177Z,999.8
2023-05-02T03:08:51.337Z,999.8
2023-05-02T03:09:52.509Z,999.8
2023-05-02T03:10:53.704Z,999.8
2023-05-02T03:11:54.838Z,999.8
2023-05-02T03:12:56.364Z,999.8
2023-05-02T03:13:57.535Z,999.8
2023-05-02T03:14:58.687Z,999.9
2023-05-02T03:15:59.891Z,999.9
2023-05-02T03:17:01.499Z,999.9
2023-05-02T03:18:03.366Z,999.9
2023-05-02T03:19:04.667Z,999.9
2023-05-02T03:20:05.790Z,999.9
2023-05-02T03:21:06.953Z,999.9
2023-05-02T03:22:08.122Z,999.9
2023-05-02T03:23:09.288Z,999.9
2023-05-02T03:24:10.466Z,999.9
2023-05-02T03:25:11.632Z,999.9
2023-05-02T03:26:12.911Z,999.9
2023-05-02T03:27:14.042Z,999.9
2023-05-02T03:28:15.205Z,999.9
2023-05-02T03:29:16.372Z,999.9
2023-05-02T03:30:17.535Z,1000
2023-05-02T03:31:18.743Z,1000
2023-05-02T03:32:19.894Z,1000
2023-05-02T03:33:21.060Z,1000
2023-05-02T03:34:22.273Z,1000.1
2023-05-02T03:35:23.418Z,1000.1
2023-05-02T03:36:24.585Z,1000.1
2023-05-02T03:37:25.760Z,1000.1
2023-05-02T03:38:26.926Z,1000.1
2023-05-02T03:39:28.088Z,1000.1
2023-05-02T03:40:29.257Z,1000.1
2023-05-02T03:41:30.553Z,1000.1
2023-05-02T03:42:31.684Z,1000.1
2023-05-02T03:43:32.851Z,1000.1
2023-05-02T03:44:34.024Z,1000.1
2023-05-02T03:45:35.183Z,1000.2
2023-05-02T03:46:36.378Z,1000.2
2023-05-02T03:47:37.655Z,1000.2
2023-05-02T03:48:39.008Z,1000.2
2023-05-02T03:49:40.287Z,1000.2
2023-05-02T03:50:41.455Z,1000.3
2023-05-02T03:51:42.618Z,1000.3
2023-05-02T03:52:43.791Z,1000.3
2023-05-02T03:53:44.961Z,1000.3
2023-05-02T03:54:46.124Z,1000.3
2023-05-02T03:55:47.291Z,1000.3
2023-05-02T03:56:48.698Z,1000.3
2023-05-02T03:57:49.845Z,1000.3
2023-05-02T03:58:51.026Z,1000.3
2023-05-02T03:59:52.219Z,1000.4
2023-05-02T04:00:53.391Z,1000.4
2023-05-02T04:01:54.552Z,1000.4
2023-05-02T04:02:55.910Z,1000.4
2023-05-02T04:03:57.465Z,1000.4
2023-05-02T04:04:58.628Z,1000.4
2023-05-02T04:05:59.824Z,1000.4
2023-05-02T04:07:01.036Z,1000.4
2023-05-02T04:08:02.224Z,1000.5
2023-05-02T04:09:03.372Z,1000.5
2023-05-02T04:10:04.844Z,1000.5
2023-05-02T04:11:06.011Z,1000.5
2023-05-02T04:12:07.219Z,1000.5
2023-05-02T04:13:08.364Z,1000.6
2023-05-02T04:14:09.528Z,1000.6
2023-05-02T04:15:10.698Z,1000.6
2023-05-02T04:16:11.873Z,1000.6
2023-05-02T04:17:13.294Z,1000.6
2023-05-02T04:18:14.606Z,1000.6
2023-05-02T04:19:15.795Z,1000.7
2023-05-02T04:20:16.978Z,1000.7
2023-05-02T04:21:18.132Z,1000.7
2023-05-02T04:22:19.312Z,1000.7
2023-05-02T04:23:20.458Z,1000.7
2023-05-02T04:24:21.644Z,1000.8
2023-05-02T04:25:22.795Z,1000.8
2023-05-02T04:26:23.973Z,1000.8
2023-05-02T04:27:25.156Z,1000.8
2023-05-02T04:28:26.314Z,1000.8
2023-05-02T04:29:27.471Z,1000.8
2023-05-02T04:30:28.653Z,1000.8
2023-05-02T04:31:29.916Z,1000.8
2023-05-02T04:32:31.347Z,1000.8
2023-05-02T04:33:32.570Z,1000.8
2023-05-02T04:34:33.713Z,1000.8
2023-05-02T04:35:34.862Z,1000.8
2023-05-02T04:36:36.031Z,1000.8
2023-05-02T04:37:38.011Z,1000.8
2023-05-02T04:38:39.331Z,1000.9
2023-05-02T04:39:43.397Z,1000.9
2023-05-02T04:40:44.568Z,1000.9
2023-05-02T04:41:45.757Z,1000.9
2023-05-02T04:42:46.930Z,1000.9
2023-05-02T04:43:48.067Z,1000.9
2023-05-02T04:44:49.236Z,1000.9
2023-05-02T04:45:50.562Z,1001
2023-05-02T04:46:52.026Z,1001
2023-05-02T04:47:53.260Z,1001
2023-05-02T04:48:54.440Z,1001
2023-05-02T04:49:55.617Z,1001.1
2023-05-02T04:50:56.806Z,1001
2023-05-02T04:51:57.977Z,1001.1
2023-05-02T04:52:59.146Z,1001.1
2023-05-02T04:54:00.385Z,1001.1
2023-05-02T04:55:01.589Z,1001.1
2023-05-02T04:56:02.784Z,1001.1
2023-05-02T04:57:03.959Z,1001.1
2023-05-02T04:58:05.140Z,1001.2
2023-05-02T04:59:06.286Z,1001.2
2023-05-02T05:00:07.448Z,1001.2
2023-05-02T05:01:08.730Z,1001.2
2023-05-02T05:02:10.151Z,1001.2
2023-05-02T05:03:11.475Z,1001.2
2023-05-02T05:04:13.656Z,1001.3
2023-05-02T05:05:15.402Z,1001.2
2023-05-02T05:06:16.655Z,1001.3
2023-05-02T05:07:17.884Z,1001.3
2023-05-02T05:08:19.079Z,1001.3
2023-05-02T05:09:20.215Z,1001.3
2023-05-02T05:10:21.383Z,1001.3
2023-05-02T05:11:22.554Z,1001.3
2023-05-02T05:12:27.296Z,1001.4
2023-05-02T05:13:28.655Z,1001.4
2023-05-02T05:14:29.838Z,1001.4
2023-05-02T05:15:31.007Z,1001.4
2023-05-02T05:16:32.182Z,1001.4
2023-05-02T05:17:33.378Z,1001.4
2023-05-02T05:18:34.672Z,1001.4
2023-05-02T05:19:35.886Z,1001.4
2023-05-02T05:20:37.014Z,1001.4
2023-05-02T05:21:38.210Z,1001.5
2023-05-02T05:22:39.374Z,1001.5
2023-05-02T05:23:40.693Z,1001.5
2023-05-02T05:24:41.855Z,1001.5
2023-05-02T05:25:46.238Z,1001.5
2023-05-02T05:26:47.397Z,1001.5
2023-05-02T05:27:48.565Z,1001.5
2023-05-02T05:28:49.899Z,1001.6
2023-05-02T05:29:51.034Z,1001.6
2023-05-02T05:30:52.373Z,1001.6
2023-05-02T05:31:53.603Z,1001.7
2023-05-02T05:32:54.879Z,1001.7
2023-05-02T05:33:56.130Z,1001.7
2023-05-02T05:34:57.351Z,1001.7
2023-05-02T05:35:58.519Z,1001.7
2023-05-02T05:36:59.686Z,1001.7
2023-05-02T05:38:00.847Z,1001.7
2023-05-02T05:39:02.015Z,1001.7
2023-05-02T05:40:03.897Z,1001.8
2023-05-02T05:41:05.811Z,1001.8
2023-05-02T05:42:06.974Z,1001.8
2023-05-02T05:43:08.172Z,1001.8
2023-05-02T05:44:09.472Z,1001.8
2023-05-02T05:45:10.605Z,1001.8
2023-05-02T05:46:11.763Z,1001.8
2023-05-02T05:47:13.035Z,1001.8
2023-05-02T05:48:14.302Z,1001.8
2023-05-02T05:49:15.437Z,1001.8
2023-05-02T05:50:16.618Z,1001.8
2023-05-02T05:51:17.768Z,1001.8
2023-05-02T05:52:18.947Z,1001.8
2023-05-02T05:53:20.112Z,1001.8
2023-05-02T05:54:21.285Z,1001.9
2023-05-02T05:55:22.450Z,1001.9
2023-05-02T05:56:23.617Z,1001.9
2023-05-02T05:57:24.900Z,1001.9
2023-05-02T05:58:26.031Z,1001.9
2023-05-02T05:59:27.241Z,1002
2023-05-02T06:00:28.425Z,1002
2023-05-02T06:01:29.586Z,1002
2023-05-02T06:02:30.843Z,1002
2023-05-02T06:03:32.415Z,1002
2023-05-02T06:04:34.086Z,1002.1
2023-05-02T06:05:35.324Z,1002.1
2023-05-02T06:06:36.519Z,1002.1
2023-05-02T06:07:37.677Z,1002.1
2023-05-02T06:08:38.875Z,1002.1
2023-05-02T06:09:40.091Z,1002.1
2023-05-02T06:10:41.243Z,1002.1
2023-05-02T06:11:42.426Z,1002.1
2023-05-02T06:12:43.579Z,1002.2
2023-05-02T06:13:44.761Z,1002.2
2023-05-02T06:14:45.964Z,1002.2
2023-05-02T06:15:47.307Z,1002.2
2023-05-02T06:16:48.654Z,1002.2
2023-05-02T06:17:49.880Z,1002.3
2023-05-02T06:18:51.069Z,1002.3
2023-05-02T06:19:52.271Z,1002.3
2023-05-02T06:20:53.403Z,1002.3
2023-05-02T06:21:54.570Z,1002.3
2023-05-02T06:22:55.748Z,1002.3
2023-05-02T06:23:56.986Z,1002.3
2023-05-02T06:24:58.149Z,1002.3
2023-05-02T06:25:59.317Z,1002.3
2023-05-02T06:27:00.487Z,1002.3
2023-05-02T06:28:01.658Z,1002.3
2023-05-02T06:29:02.863Z,1002.3
2023-05-02T06:30:04.818Z,1002.4
2023-05-02T06:31:06.270Z,1002.4
2023-05-02T06:32:07.672Z,1002.4
2023-05-02T06:33:08.926Z,1002.4
2023-05-02T06:34:10.105Z,1002.5
2023-05-02T06:35:11.294Z,1002.5
2023-05-02T06:36:12.492Z,1002.5
2023-05-02T06:37:13.623Z,1002.5
2023-05-02T06:38:14.805Z,1002.5
2023-05-02T06:39:16.060Z,1002.6
2023-05-02T06:40:17.224Z,1002.6
2023-05-02T06:41:18.944Z,1002.6
2023-05-02T06:42:20.105Z,1002.6
2023-05-02T06:43:21.274Z,1002.6
2023-05-02T06:44:22.472Z,1002.6
2023-05-02T06:45:23.852Z,1002.7
2023-05-02T06:46:25.122Z,1002.7
2023-05-02T06:47:26.519Z,1002.7
2023-05-02T06:48:27.685Z,1002.7
2023-05-02T06:49:28.863Z,1002.7
2023-05-02T06:50:30.019Z,1002.7
2023-05-02T06:51:31.195Z,1002.8
2023-05-02T06:52:32.424Z,1002.8
2023-05-02T06:53:33.754Z,1002.8
2023-05-02T06:54:34.918Z,1002.8
2023-05-02T06:55:36.107Z,1002.8
2023-05-02T06:56:37.276Z,1002.8
2023-05-02T06:57:38.445Z,1002.9
2023-05-02T06:58:39.616Z,1002.9
2023-05-02T06:59:40.784Z,1002.9
2023-05-02T07:00:42.266Z,1002.9
2023-05-02T07:01:43.556Z,1002.9
2023-05-02T07:02:44.721Z,1002.9
2023-05-02T07:03:45.937Z,1002.9
2023-05-02T07:04:47.628Z,1003
2023-05-02T07:05:48.779Z,1003
2023-05-02T07:06:50.183Z,1003
2023-05-02T07:07:51.682Z,1003
2023-05-02T07:08:52.846Z,1003
2023-05-02T07:09:54.006Z,1003.1
2023-05-02T07:10:55.177Z,1003.1
2023-05-02T07:11:56.350Z,1003.1
2023-05-02T07:12:57.513Z,1003.1
2023-05-02T07:13:58.676Z,1003.1
2023-05-02T07:14:59.846Z,1003.1
2023-05-02T07:16:01.280Z,1003.1
2023-05-02T07:17:02.865Z,1003.1
2023-05-02T07:18:04.199Z,1003.1
2023-05-02T07:19:05.378Z,1003.1
2023-05-02T07:20:06.543Z,1003.1
2023-05-02T07:21:07.723Z,1003.1
2023-05-02T07:22:08.883Z,1003.1
2023-05-02T07:23:10.039Z,1003.1
2023-05-02T07:24:11.206Z,1003.2
2023-05-02T07:25:12.377Z,1003.2
2023-05-02T07:26:13.547Z,1003.1
2023-05-02T07:27:14.704Z,1003.1
2023-05-02T07:28:15.878Z,1003.1
2023-05-02T07:29:17.048Z,1003.2
2023-05-02T07:30:18.211Z,1003.1
2023-05-02T07:31:19.604Z,1003.2
2023-05-02T07:32:21.311Z,1003.2
2023-05-02T07:33:23.000Z,1003.2
2023-05-02T07:34:24.347Z,1003.2
2023-05-02T07:35:25.504Z,1003.2
2023-05-02T07:36:26.671Z,1003.2
2023-05-02T07:37:27.838Z,1003.3
2023-05-02T07:38:28.991Z,1003.3
2023-05-02T07:39:30.337Z,1003.3
2023-05-02T07:40:31.743Z,1003.3
2023-05-02T07:41:32.928Z,1003.3
2023-05-02T07:42:34.063Z,1003.3
2023-05-02T07:43:35.228Z,1003.4
2023-05-02T07:44:36.398Z,1003.4
2023-05-02T07:45:37.566Z,1003.4
2023-05-02T07:46:38.877Z,1003.4
2023-05-02T07:47:40.262Z,1003.4
2023-05-02T07:48:41.471Z,1003.4
2023-05-02T07:49:42.637Z,1003.4
2023-05-02T07:50:44.138Z,1003.4
2023-05-02T07:51:45.261Z,1003.5
2023-05-02T07:52:46.434Z,1003.5
2023-05-02T07:53:47.601Z,1003.5
2023-05-02T07:54:48.862Z,1003.5
2023-05-02T07:55:50.023Z,1003.5
2023-05-02T07:56:51.191Z,1003.5
2023-05-02T07:57:52.419Z,1003.5
2023-05-02T07:58:53.646Z,1003.5
2023-05-02T07:59:54.815Z,1003.5
2023-05-02T08:00:56.028Z,1003.5
2023-05-02T08:01:57.177Z,1003.5
2023-05-02T08:02:58.547Z,1003.5
2023-05-02T08:04:00.474Z,1003.5
2023-05-02T08:05:02.298Z,1003.5
2023-05-02T08:06:03.660Z,1003.5
2023-05-02T08:07:04.969Z,1003.6
2023-05-02T08:08:09.130Z,1003.6
2023-05-02T08:09:10.363Z,1003.6
2023-05-02T08:10:11.554Z,1003.7
2023-05-02T08:11:12.741Z,1003.7
2023-05-02T08:12:13.936Z,1003.7
2023-05-02T08:13:18.138Z,1003.7
2023-05-02T08:14:19.298Z,1003.7
2023-05-02T08:15:20.473Z,1003.8
2023-05-02T08:16:21.749Z,1003.8
2023-05-02T08:17:23.435Z,1003.9
2023-05-02T08:18:24.765Z,1003.9
2023-05-02T08:19:25.937Z,1003.9
2023-05-02T08:20:27.111Z,1003.9
2023-05-02T08:21:28.311Z,1004
2023-05-02T08:22:29.447Z,1004
2023-05-02T08:23:30.614Z,1004
2023-05-02T08:24:31.782Z,1004
2023-05-02T08:25:32.945Z,1004
2023-05-02T08:26:34.121Z,1004.1
2023-05-02T08:27:35.551Z,1004.1
2023-05-02T08:28:36.764Z,1004.1
2023-05-02T08:29:37.970Z,1004.2
2023-05-02T08:30:39.111Z,1004.2
2023-05-02T08:31:40.277Z,1004.2
2023-05-02T08:32:41.940Z,1004.3
2023-05-02T08:33:43.101Z,1004.3
2023-05-02T08:34:44.386Z,1004.4
2023-05-02T08:35:45.566Z,1004.4
2023-05-02T08:36:46.737Z,1004.4
2023-05-02T08:37:47.933Z,1004.4
2023-05-02T08:38:49.064Z,1004.5
2023-05-02T08:39:50.319Z,1004.5
2023-05-02T08:40:51.492Z,1004.5
2023-05-02T08:41:52.890Z,1004.5
2023-05-02T08:42:54.098Z,1004.5
2023-05-02T08:43:55.267Z,1004.6
2023-05-02T08:44:56.499Z,1004.6
2023-05-02T08:45:57.676Z,1004.6
2023-05-02T08:46:58.948Z,1004.6
2023-05-02T08:48:00.350Z,1004.6
2023-05-02T08:49:01.685Z,1004.6
2023-05-02T08:50:03.515Z,1004.7
2023-05-02T08:51:04.995Z,1004.7
2023-05-02T08:52:06.137Z,1004.7
2023-05-02T08:53:07.356Z,1004.7
2023-05-02T08:54:08.491Z,1004.8
2023-05-02T08:55:09.667Z,1004.8
2023-05-02T08:56:10.844Z,1004.8
2023-05-02T08:57:11.999Z,1004.9
2023-05-02T08:58:17.009Z,1004.9
2023-05-02T08:59:18.876Z,1004.9
2023-05-02T09:00:21.231Z,1005
2023-05-02T09:01:22.554Z,1005
2023-05-02T09:02:24.247Z,1005
2023-05-02T09:03:25.503Z,1005
2023-05-02T09:04:26.718Z,1005.1
2023-05-02T09:05:27.882Z,1005.1
2023-05-02T09:06:29.091Z,1005.1
2023-05-02T09:07:30.515Z,1005.1
2023-05-02T09:08:34.031Z,1005.2
2023-05-02T09:09:35.559Z,1005.2
2023-05-02T09:10:36.712Z,1005.2
2023-05-02T09:14:19.223Z,1005.3
2023-05-02T09:16:49.454Z,1005.3
2023-05-02T09:17:55.926Z,1005.3
2023-05-02T09:19:05.234Z,1005.3
2023-05-02T09:20:09.391Z,1005.4
2023-05-02T09:21:34.455Z,1005.4
2023-05-02T09:22:41.387Z,1005.4
2023-05-02T09:23:42.538Z,1005.4
2023-05-02T09:24:43.779Z,1005.4
2023-05-02T10:04:18.250Z,1005.4
2023-05-02T10:05:19.651Z,1005.8
2023-05-02T10:06:20.909Z,1005.8
2023-05-02T10:07:22.095Z,1005.8
2023-05-02T10:08:23.246Z,1005.8
2023-05-02T10:09:24.446Z,1005.8
2023-05-02T10:10:25.583Z,1005.8
2023-05-02T10:11:26.756Z,1005.8
2023-05-02T10:12:27.919Z,1005.9
2023-05-02T10:13:29.216Z,1005.9
2023-05-02T10:14:30.345Z,1005.9
2023-05-02T10:15:31.569Z,1005.9
2023-05-02T10:16:32.992Z,1005.9
2023-05-02T10:17:34.525Z,1005.9
2023-05-02T10:18:35.680Z,1005.9
2023-05-02T10:19:36.882Z,1005.9
2023-05-02T10:20:38.146Z,1005.9
2023-05-02T10:21:39.305Z,1005.9
2023-05-02T10:22:40.597Z,1005.9
2023-05-02T10:23:41.723Z,1005.9
2023-05-02T10:24:42.906Z,1006
2023-05-02T10:25:44.065Z,1006
2023-05-02T10:26:45.251Z,1006
2023-05-02T10:27:46.400Z,1006
2023-05-02T10:28:47.561Z,1006
2023-05-02T10:29:48.736Z,1006
2023-05-02T10:30:50.098Z,1006
2023-05-02T10:31:55.117Z,1006
2023-05-02T10:32:56.808Z,1006
2023-05-02T10:34:05.192Z,1006
2023-05-02T10:35:14.273Z,1006
2023-05-02T10:36:15.404Z,1006
2023-05-02T10:37:16.567Z,1006
2023-05-02T10:38:17.764Z,1006
2023-05-02T10:39:18.931Z,1006
2023-05-02T10:40:20.081Z,1006
2023-05-02T10:41:21.247Z,1006
2023-05-02T10:42:22.409Z,1006
2023-05-02T10:43:23.569Z,1006
2023-05-02T10:44:26.706Z,1006
2023-05-02T10:45:29.169Z,1006
2023-05-02T10:46:30.435Z,1006.1
2023-05-02T10:47:31.704Z,1006
2023-05-02T10:48:32.864Z,1006
2023-05-02T10:49:34.069Z,1006
2023-05-02T10:50:35.230Z,1006.1
2023-05-02T10:51:36.421Z,1006.1
2023-05-02T10:53:40.317Z,1006
2023-05-02T10:54:41.527Z,1006
2023-05-02T10:55:45.442Z,1006
2023-05-02T10:56:49.408Z,1006
2023-05-02T10:57:56.486Z,1006
2023-05-02T10:58:57.661Z,1006
2023-05-02T10:59:58.797Z,1006
2023-05-02T11:01:00.112Z,1006
2023-05-02T11:02:01.533Z,1006
2023-05-02T11:03:03.935Z,1006
2023-05-02T11:04:05.333Z,1006
2023-05-02T11:05:09.534Z,1006.1
2023-05-02T11:06:10.867Z,1006.1
2023-05-02T11:07:14.913Z,1006.1
2023-05-02T11:08:16.869Z,1006.1
2023-05-02T11:09:22.066Z,1006.2
2023-05-02T11:10:27.407Z,1006.2
2023-05-02T11:11:30.785Z,1006.2
2023-05-02T11:12:34.889Z,1006.2
2023-05-02T11:13:38.748Z,1006.2
2023-05-02T11:14:42.858Z,1006.2
2023-05-02T11:15:44.031Z,1006.2
2023-05-02T11:16:45.322Z,1006.2
2023-05-02T11:17:46.589Z,1006.2
2023-05-02T11:18:49.904Z,1006.2
2023-05-02T11:19:51.192Z,1006.2
2023-05-02T11:20:55.389Z,1006.3
2023-05-02T11:21:56.580Z,1006.3
2023-05-02T11:23:02.710Z,1006.3
2023-05-02T11:24:03.844Z,1006.3
2023-05-02T11:25:05.115Z,1006.3
2023-05-02T11:26:06.262Z,1006.3
2023-05-02T11:27:09.575Z,1006.3
2023-05-02T11:28:10.741Z,1006.3
2023-05-02T11:29:15.017Z,1006.3
2023-05-02T11:30:16.159Z,1006.3
2023-05-02T11:31:17.334Z,1006.3
2023-05-02T11:32:18.908Z,1006.3
2023-05-02T11:33:20.360Z,1006.3
2023-05-02T11:34:21.837Z,1006.3
2023-05-02T11:35:23.025Z,1006.3
2023-05-02T11:36:24.161Z,1006.3
2023-05-02T11:37:31.587Z,1006.3
2023-05-02T11:38:35.628Z,1006.3
2023-05-02T11:39:40.085Z,1006.3
2023-05-02T11:40:41.313Z,1006.3
2023-05-02T11:41:42.593Z,1006.4
2023-05-02T11:42:46.653Z,1006.4
2023-05-02T11:43:47.855Z,1006.4
2023-05-02T11:44:51.701Z,1006.3
2023-05-02T11:45:53.091Z,1006.3
2023-05-02T11:46:54.265Z,1006.3
2023-05-02T11:47:55.509Z,1006.3
2023-05-02T11:48:56.722Z,1006.3
2023-05-02T11:50:06.037Z,1006.4
2023-05-02T11:51:47.732Z,1006.4
2023-05-02T11:52:48.917Z,1006.4
2023-05-02T11:53:50.076Z,1006.4
2023-05-02T11:54:53.937Z,1006.4
2023-05-02T11:55:55.114Z,1006.4
2023-05-02T11:56:56.451Z,1006.4
2023-05-02T11:57:57.721Z,1006.4
2023-05-02T11:58:59.059Z,1006.5
2023-05-02T12:00:00.281Z,1006.5
2023-05-02T12:01:03.599Z,1006.5
2023-05-02T12:02:07.539Z,1006.5
2023-05-02T12:03:09.075Z,1006.5
2023-05-02T12:04:12.578Z,1006.5
2023-05-02T12:05:14.029Z,1006.5
2023-05-02T12:06:16.009Z,1006.6
2023-05-02T12:07:20.780Z,1006.5
2023-05-02T12:08:22.057Z,1006.6
2023-05-02T12:09:25.494Z,1006.6
2023-05-02T12:10:29.606Z,1006.6
2023-05-02T12:12:21.407Z,1006.5
2023-05-02T12:13:22.593Z,1006.6
2023-05-02T12:14:23.832Z,1006.6
2023-05-02T12:15:28.035Z,1006.6
2023-05-02T12:16:34.354Z,1006.6
2023-05-02T12:17:35.906Z,1006.7
2023-05-02T12:18:37.172Z,1006.7
2023-05-02T12:19:38.342Z,1006.7
2023-05-02T12:20:39.590Z,1006.7
2023-05-02T12:21:43.534Z,1006.8
2023-05-02T12:22:44.762Z,1006.7
2023-05-02T12:23:45.980Z,1006.8
2023-05-02T12:24:47.236Z,1006.8
2023-05-02T12:25:48.411Z,1006.8
2023-05-02T12:26:52.403Z,1006.9
2023-05-02T12:27:56.871Z,1006.9
2023-05-02T12:28:58.055Z,1006.9
2023-05-02T12:29:59.533Z,1006.9
2023-05-02T12:31:01.385Z,1006.9
2023-05-02T12:32:02.686Z,1006.9
2023-05-02T12:33:04.368Z,1006.9
2023-05-02T12:34:08.551Z,1006.9
2023-05-02T12:35:09.725Z,1006.9
2023-05-02T12:36:11.000Z,1006.9
2023-05-02T12:37:12.240Z,1007
2023-05-02T12:38:13.411Z,1006.9
2023-05-02T12:39:14.672Z,1006.9
2023-05-02T12:40:15.903Z,1006.9
2023-05-02T12:41:17.146Z,1007
2023-05-02T12:42:24.525Z,1007
2023-05-02T12:43:28.493Z,1007
2023-05-02T12:44:29.696Z,1007
2023-05-02T12:45:33.714Z,1007
2023-05-02T12:46:34.926Z,1007
2023-05-02T12:47:36.100Z,1007
2023-05-02T12:48:42.337Z,1007
2023-05-02T12:49:45.781Z,1007.1
2023-05-02T12:50:49.015Z,1007.1
2023-05-02T12:51:50.174Z,1007.1
2023-05-02T12:52:51.387Z,1007.1
2023-05-02T12:53:52.565Z,1007.1
2023-05-02T12:54:56.460Z,1007.2
2023-05-02T12:55:57.634Z,1007.2
2023-05-02T12:56:58.861Z,1007.1
2023-05-02T12:58:00.004Z,1007.1
2023-05-02T12:59:01.181Z,1007.1
2023-05-02T13:00:03.380Z,1007.1
2023-05-02T13:01:07.967Z,1007.1
2023-05-02T13:02:09.162Z,1007.1
2023-05-02T13:03:10.479Z,1007.1
2023-05-02T13:04:12.098Z,1007.2
2023-05-02T13:05:13.310Z,1007.1
2023-05-02T13:06:14.526Z,1007.1
2023-05-02T13:07:15.682Z,1007.2
2023-05-02T13:08:16.836Z,1007.2
2023-05-02T13:09:18.001Z,1007.2
2023-05-02T13:10:19.197Z,1007.2
2023-05-02T13:11:20.361Z,1007.2
2023-05-02T13:12:24.043Z,1007.2
2023-05-02T13:13:25.172Z,1007.1
2023-05-02T13:14:26.335Z,1007.2
2023-05-02T13:15:27.579Z,1007.2
2023-05-02T13:16:28.853Z,1007.2
2023-05-02T13:17:30.414Z,1007.2
2023-05-02T13:18:31.837Z,1007.2
2023-05-02T13:19:35.199Z,1007.1
2023-05-02T13:20:36.372Z,1007.2
2023-05-02T13:21:37.532Z,1007.2
2023-05-02T13:22:38.714Z,1007.2
2023-05-02T13:23:39.992Z,1007.2
2023-05-02T13:24:41.117Z,1007.2
2023-05-02T13:25:42.317Z,1007.2
2023-05-02T13:26:43.603Z,1007.2
2023-05-02T13:27:44.773Z,1007.2
2023-05-02T13:28:45.954Z,1007.3
2023-05-02T13:29:47.106Z,1007.3
2023-05-02T13:30:48.330Z,1007.3
2023-05-02T13:31:49.537Z,1007.3
2023-05-02T13:32:50.701Z,1007.3
2023-05-02T13:33:51.890Z,1007.3
2023-05-02T13:34:53.066Z,1007.3
2023-05-02T13:35:54.424Z,1007.3
2023-05-02T13:36:58.180Z,1007.3
2023-05-02T13:37:59.351Z,1007.3
2023-05-02T13:39:00.697Z,1007.3
2023-05-02T13:40:02.320Z,1007.3
2023-05-02T13:41:04.221Z,1007.3
2023-05-02T13:42:06.749Z,1007.4
2023-05-02T13:43:07.975Z,1007.4
2023-05-02T13:44:12.102Z,1007.4
2023-05-02T13:45:13.263Z,1007.4
2023-05-02T13:46:14.515Z,1007.4
2023-05-02T13:47:15.692Z,1007.4
2023-05-02T13:48:16.950Z,1007.4
2023-05-02T13:49:18.183Z,1007.4
2023-05-02T13:50:19.511Z,1007.4
2023-05-02T13:51:20.721Z,1007.4
2023-05-02T13:52:21.886Z,1007.4
2023-05-02T13:53:23.063Z,1007.4
2023-05-02T13:54:24.220Z,1007.4
2023-05-02T13:55:25.391Z,1007.4
2023-05-02T13:56:26.583Z,1007.4
2023-05-02T13:57:27.763Z,1007.4
2023-05-02T13:58:28.917Z,1007.4
2023-05-02T13:59:30.085Z,1007.4
2023-05-02T14:00:31.258Z,1007.4
2023-05-02T14:01:32.487Z,1007.4
2023-05-02T14:02:33.812Z,1007.4
2023-05-02T14:03:35.404Z,1007.4
2023-05-02T14:04:37.027Z,1007.5
2023-05-02T14:05:38.191Z,1007.5
2023-05-02T14:06:39.422Z,1007.5
2023-05-02T14:07:40.586Z,1007.5
2023-05-02T14:08:41.862Z,1007.5
2023-05-02T14:09:45.881Z,1007.5
2023-05-02T14:10:47.052Z,1007.5
2023-05-02T14:11:48.246Z,1007.5
2023-05-02T14:12:49.391Z,1007.5
2023-05-02T14:13:50.559Z,1007.5
2023-05-02T14:14:51.744Z,1007.5
2023-05-02T14:15:53.028Z,1007.5
2023-05-02T14:16:54.183Z,1007.5
2023-05-02T14:17:55.348Z,1007.6
2023-05-02T14:18:56.573Z,1007.5
2023-05-02T14:19:57.738Z,1007.6
2023-05-02T14:20:58.906Z,1007.6
2023-05-02T14:22:00.079Z,1007.6